createdAt,value
2022-11-13T00:01:12.468Z,103066.47
2022-11-13T00:03:40.230Z,103076.63
2022-11-13T00:06:10.720Z,103080.00
2022-11-13T00:08:38.295Z,103074.81
2022-11-13T00:11:08.649Z,103074.38
2022-11-13T00:13:36.463Z,103076.81
2022-11-13T00:16:06.234Z,103070.34
2022-11-13T00:18:36.702Z,103070.13
2022-11-13T00:21:10.287Z,103069.91
2022-11-13T00:23:38.753Z,103066.13
2022-11-13T00:26:08.534Z,103064.41
2022-11-13T00:28:37.190Z,103057.31
2022-11-13T00:31:06.504Z,103063.53
2022-11-13T00:36:27.453Z,103067.47
2022-11-13T00:38:57.227Z,103059.03
2022-11-13T00:41:26.185Z,103059.25
2022-11-13T00:43:54.688Z,103059.56
2022-11-13T00:46:23.313Z,103055.63
2022-11-13T00:48:52.444Z,103061.41
2022-11-13T00:51:20.268Z,103050.16
2022-11-13T00:53:49.318Z,103049.41
2022-11-13T00:56:17.012Z,103046.88
2022-11-13T00:58:44.861Z,103039.16
2022-11-13T01:01:14.985Z,103046.97
2022-11-13T01:03:43.470Z,103040.97
2022-11-13T01:06:13.187Z,103054.19
2022-11-13T01:08:41.869Z,103045.31
2022-11-13T01:11:14.696Z,103044.31
2022-11-13T01:13:44.441Z,103046.75
2022-11-13T01:16:14.359Z,103046.53
2022-11-13T01:18:43.406Z,103046.13
2022-11-13T01:21:13.001Z,103045.06
2022-11-13T01:23:42.691Z,103040.59
2022-11-13T01:26:14.137Z,103031.09
2022-11-13T01:28:44.518Z,103013.41
2022-11-13T01:31:16.720Z,103018.72
2022-11-13T01:33:46.708Z,103012.34
2022-11-13T01:36:17.052Z,103013.19
2022-11-13T01:38:45.052Z,103008.00
2022-11-13T01:41:23.413Z,103008.22
2022-11-13T01:43:53.168Z,103015.34
2022-11-13T01:46:26.085Z,103016.41
2022-11-13T01:48:59.977Z,103014.69
2022-11-13T01:51:33.058Z,103016.06
2022-11-13T01:54:03.800Z,103014.25
2022-11-13T01:56:33.799Z,103009.91
2022-11-13T01:59:08.124Z,103010.66
2022-11-13T02:01:36.113Z,102999.44
2022-11-13T02:04:04.103Z,102994.03
2022-11-13T02:06:37.684Z,102988.09
2022-11-13T02:09:06.957Z,102994.47
2022-11-13T02:11:36.828Z,102989.31
2022-11-13T02:14:06.475Z,102986.88
2022-11-13T02:16:37.157Z,102990.47
2022-11-13T02:19:17.676Z,102993.09
2022-11-13T02:21:53.258Z,102982.22
2022-11-13T02:24:26.776Z,102985.38
2022-11-13T02:26:57.798Z,102984.41
2022-11-13T02:29:25.881Z,102975.72
2022-11-13T02:31:53.786Z,102967.06
2022-11-13T02:34:21.989Z,102970.66
2022-11-13T02:36:50.216Z,102966.13
2022-11-13T02:39:18.362Z,102969.38
2022-11-13T02:41:47.636Z,102969.16
2022-11-13T02:44:15.615Z,102970.94
2022-11-13T02:46:44.038Z,102968.50
2022-11-13T02:49:11.967Z,102962.50
2022-11-13T02:51:39.886Z,102964.06
2022-11-13T02:54:09.907Z,102976.34
2022-11-13T02:56:39.689Z,102971.91
2022-11-13T02:59:09.329Z,102965.56
2022-11-13T03:01:37.260Z,102958.47
2022-11-13T03:04:05.397Z,102951.25
2022-11-13T03:06:33.292Z,102954.84
2022-11-13T03:09:01.590Z,102955.69
2022-11-13T03:11:30.107Z,102953.16
2022-11-13T03:13:58.091Z,102950.41
2022-11-13T03:16:27.434Z,102938.97
2022-11-13T03:18:56.683Z,102938.13
2022-11-13T03:21:25.373Z,102929.34
2022-11-13T03:23:55.256Z,102934.50
2022-11-13T03:26:23.763Z,102927.56
2022-11-13T03:28:52.342Z,102922.97
2022-11-13T03:31:20.646Z,102919.38
2022-11-13T03:33:50.324Z,102915.66
2022-11-13T03:36:18.885Z,102918.31
2022-11-13T03:38:46.929Z,102915.53
2022-11-13T03:41:15.542Z,102904.09
2022-11-13T03:43:43.639Z,102909.31
2022-11-13T03:46:11.584Z,102917.03
2022-11-13T03:48:40.293Z,102908.13
2022-11-13T03:51:09.848Z,102916.06
2022-11-13T03:53:37.808Z,102916.78
2022-11-13T03:56:06.318Z,102920.28
2022-11-13T03:58:37.374Z,102915.72
2022-11-13T04:01:07.964Z,102921.75
2022-11-13T04:03:36.439Z,102911.28
2022-11-13T04:06:04.617Z,102910.19
2022-11-13T04:08:33.871Z,102912.97
2022-11-13T04:11:07.831Z,102898.75
2022-11-13T04:13:35.894Z,102890.81
2022-11-13T04:16:04.130Z,102897.81
2022-11-13T04:18:32.297Z,102886.28
2022-11-13T04:21:01.159Z,102886.28
2022-11-13T04:23:29.105Z,102873.84
2022-11-13T04:25:59.044Z,102891.56
2022-11-13T04:28:27.668Z,102889.75
2022-11-13T04:30:56.460Z,102881.94
2022-11-13T04:33:24.384Z,102882.78
2022-11-13T04:35:52.330Z,102880.84
2022-11-13T04:38:20.304Z,102883.44
2022-11-13T04:40:51.168Z,102879.81
2022-11-13T04:43:19.403Z,102877.16
2022-11-13T04:45:47.385Z,102879.06
2022-11-13T04:48:15.317Z,102872.84
2022-11-13T04:50:43.341Z,102869.31
2022-11-13T04:53:11.255Z,102870.38
2022-11-13T04:55:39.138Z,102865.91
2022-11-13T04:58:07.100Z,102866.56
2022-11-13T05:00:36.434Z,102864.91
2022-11-13T05:03:04.502Z,102869.31
2022-11-13T05:05:32.388Z,102859.66
2022-11-13T05:08:00.289Z,102857.97
2022-11-13T05:10:28.310Z,102864.97
2022-11-13T05:12:57.600Z,102860.50
2022-11-13T05:15:25.445Z,102860.41
2022-11-13T05:17:55.238Z,102856.94
2022-11-13T05:20:23.139Z,102859.78
2022-11-13T05:22:51.081Z,102853.75
2022-11-13T05:25:19.033Z,102845.31
2022-11-13T05:27:46.946Z,102849.97
2022-11-13T05:30:14.951Z,102853.34
2022-11-13T05:32:42.834Z,102848.06
2022-11-13T05:35:12.187Z,102850.59
2022-11-13T05:37:40.128Z,102841.81
2022-11-13T05:40:08.978Z,102838.31
2022-11-13T05:42:36.937Z,102846.25
2022-11-13T05:45:05.208Z,102843.97
2022-11-13T05:47:46.490Z,102842.41
2022-11-13T05:50:18.220Z,102836.72
2022-11-13T05:52:45.788Z,102831.97
2022-11-13T05:55:13.506Z,102835.69
2022-11-13T05:57:43.556Z,102839.19
2022-11-13T06:00:22.023Z,102849.69
2022-11-13T06:02:49.934Z,102848.59
2022-11-13T06:05:19.126Z,102843.19
2022-11-13T06:07:50.215Z,102852.81
2022-11-13T06:10:18.401Z,102855.34
2022-11-13T06:12:46.321Z,102854.84
2022-11-13T06:15:14.269Z,102848.28
2022-11-13T06:17:46.375Z,102853.59
2022-11-13T06:20:22.660Z,102850.94
2022-11-13T06:22:53.710Z,102849.13
2022-11-13T06:25:21.663Z,102853.50
2022-11-13T06:27:49.402Z,102847.34
2022-11-13T06:30:17.348Z,102843.75
2022-11-13T06:32:45.259Z,102852.53
2022-11-13T06:35:13.472Z,102861.31
2022-11-13T06:37:53.786Z,102855.06
2022-11-13T06:40:23.383Z,102854.97
2022-11-13T06:42:51.392Z,102860.25
2022-11-13T06:45:19.534Z,102849.06
2022-11-13T06:47:47.248Z,102846.50
2022-11-13T06:50:15.275Z,102847.78
2022-11-13T06:52:43.262Z,102840.00
2022-11-13T06:55:11.183Z,102850.44
2022-11-13T06:57:40.513Z,102856.59
2022-11-13T07:00:09.774Z,102856.34
2022-11-13T07:02:37.714Z,102859.63
2022-11-13T07:05:06.154Z,102863.00
2022-11-13T07:07:34.550Z,102859.28
2022-11-13T07:10:02.714Z,102859.91
2022-11-13T07:12:30.768Z,102855.09
2022-11-13T07:15:00.134Z,102850.34
2022-11-13T07:17:30.040Z,102847.56
2022-11-13T07:19:57.609Z,102853.34
2022-11-13T07:22:25.213Z,102853.97
2022-11-13T07:24:52.772Z,102862.44
2022-11-13T07:27:20.376Z,102865.38
2022-11-13T07:29:47.967Z,102864.78
2022-11-13T07:32:16.867Z,102859.66
2022-11-13T07:34:44.468Z,102867.16
2022-11-13T07:37:12.160Z,102875.34
2022-11-13T07:39:39.749Z,102873.94
2022-11-13T07:42:07.521Z,102869.97
2022-11-13T07:44:53.419Z,102871.28
2022-11-13T07:47:23.508Z,102862.88
2022-11-13T07:49:51.370Z,102868.44
2022-11-13T07:52:19.006Z,102871.44
2022-11-13T07:54:46.796Z,102874.59
2022-11-13T07:57:15.776Z,102881.94
2022-11-13T07:59:44.277Z,102881.47
2022-11-13T08:02:16.436Z,102876.63
2022-11-13T08:04:46.076Z,102870.59
2022-11-13T08:07:13.867Z,102871.59
2022-11-13T08:09:41.507Z,102882.28
2022-11-13T08:12:09.257Z,102877.25
2022-11-13T08:14:37.734Z,102881.31
2022-11-13T08:17:05.486Z,102877.94
2022-11-13T08:19:33.113Z,102888.66
2022-11-13T08:22:02.196Z,102879.50
2022-11-13T08:24:29.976Z,102871.63
2022-11-13T08:26:58.724Z,102881.63
2022-11-13T08:29:27.490Z,102877.63
2022-11-13T08:31:56.054Z,102877.63
2022-11-13T08:34:24.131Z,102874.97
2022-11-13T08:36:52.961Z,102872.41
2022-11-13T08:39:22.562Z,102865.63
2022-11-13T08:41:51.610Z,102862.06
2022-11-13T08:44:20.440Z,102859.59
2022-11-13T08:46:48.604Z,102862.50
2022-11-13T08:49:16.172Z,102864.13
2022-11-13T08:51:43.807Z,102867.56
2022-11-13T08:54:11.409Z,102869.91
2022-11-13T08:56:41.501Z,102864.06
2022-11-13T08:59:11.315Z,102854.72
2022-11-13T09:01:39.993Z,102855.88
2022-11-13T09:04:08.748Z,102868.22
2022-11-13T09:06:36.713Z,102858.75
2022-11-13T09:09:06.589Z,102847.75
2022-11-13T09:11:34.641Z,102847.75
2022-11-13T09:14:03.545Z,102838.78
2022-11-13T09:16:31.189Z,102839.09
2022-11-13T09:18:58.788Z,102835.75
2022-11-13T09:21:26.337Z,102826.06
2022-11-13T09:23:53.946Z,102834.09
2022-11-13T09:26:21.619Z,102838.88
2022-11-13T09:28:49.332Z,102835.09
2022-11-13T09:31:18.260Z,102841.41
2022-11-13T09:33:45.853Z,102830.09
2022-11-13T09:36:15.347Z,102832.75
2022-11-13T09:38:43.384Z,102835.72
2022-11-13T09:41:14.059Z,102835.28
2022-11-13T09:43:45.949Z,102838.38
2022-11-13T09:46:21.114Z,102848.75
2022-11-13T09:48:53.926Z,102843.25
2022-11-13T09:51:25.776Z,102844.25
2022-11-13T09:53:53.507Z,102839.59
2022-11-13T09:56:29.683Z,102837.31
2022-11-13T09:59:06.640Z,102834.63
2022-11-13T10:01:44.495Z,102825.06
2022-11-13T10:04:15.156Z,102829.16
2022-11-13T10:06:59.362Z,102824.22
2022-11-13T10:09:37.868Z,102824.63
2022-11-13T10:12:08.337Z,102826.16
2022-11-13T10:14:39.692Z,102825.94
2022-11-13T10:17:16.258Z,102817.25
2022-11-13T10:19:54.220Z,102826.41
2022-11-13T10:22:34.687Z,102826.78
2022-11-13T10:25:12.722Z,102828.25
2022-11-13T10:27:43.523Z,102817.41
2022-11-13T10:30:16.874Z,102821.34
2022-11-13T10:32:47.404Z,102820.25
2022-11-13T10:35:33.897Z,102824.06
2022-11-13T10:38:08.246Z,102814.91
2022-11-13T10:40:39.258Z,102818.94
2022-11-13T10:43:14.292Z,102816.50
2022-11-13T10:45:41.997Z,102812.00
2022-11-13T10:48:21.901Z,102807.47
2022-11-13T10:50:59.234Z,102806.19
2022-11-13T10:53:32.057Z,102805.31
2022-11-13T10:56:01.088Z,102810.00
2022-11-13T10:58:30.323Z,102802.84
2022-11-13T11:00:58.364Z,102806.91
2022-11-13T11:03:29.280Z,102804.28
2022-11-13T11:05:58.806Z,102799.34
2022-11-13T11:08:31.292Z,102798.44
2022-11-13T11:11:18.758Z,102798.53
2022-11-13T11:13:47.045Z,102787.19
2022-11-13T11:16:22.195Z,102792.78
2022-11-13T11:18:56.928Z,102789.72
2022-11-13T11:21:30.352Z,102782.72
2022-11-13T11:24:02.053Z,102775.28
2022-11-13T11:26:34.009Z,102775.41
2022-11-13T11:29:09.553Z,102774.16
2022-11-13T11:31:44.725Z,102775.41
2022-11-13T11:34:20.758Z,102764.66
2022-11-13T11:36:59.092Z,102764.25
2022-11-13T11:39:30.600Z,102765.69
2022-11-13T11:42:11.421Z,102763.34
2022-11-13T11:44:51.872Z,102775.56
2022-11-13T11:47:19.609Z,102769.38
2022-11-13T11:49:51.204Z,102771.91
2022-11-13T11:52:44.269Z,102769.94
2022-11-13T11:55:31.538Z,102771.06
2022-11-13T11:58:02.523Z,102771.19
2022-11-13T12:00:33.686Z,102763.59
2022-11-13T12:03:35.180Z,102773.97
2022-11-13T12:06:12.633Z,102758.28
2022-11-13T12:08:49.504Z,102758.16
2022-11-13T12:11:27.749Z,102747.06
2022-11-13T12:14:04.540Z,102745.84
2022-11-13T12:16:43.054Z,102738.13
2022-11-13T12:19:23.525Z,102739.25
2022-11-13T12:22:11.653Z,102738.28
2022-11-13T12:24:58.028Z,102742.06
2022-11-13T12:27:34.812Z,102736.59
2022-11-13T12:30:11.798Z,102740.25
2022-11-13T12:33:07.670Z,102736.31
2022-11-13T12:35:36.453Z,102734.91
2022-11-13T12:38:13.995Z,102730.00
2022-11-13T12:40:48.991Z,102724.69
2022-11-13T12:43:46.155Z,102722.31
2022-11-13T12:46:14.308Z,102718.81
2022-11-13T12:48:43.801Z,102722.84
2022-11-13T12:51:13.757Z,102723.97
2022-11-13T12:53:48.548Z,102720.84
2022-11-13T12:56:30.056Z,102714.97
2022-11-13T13:01:52.890Z,102715.56
2022-11-13T13:04:49.702Z,102713.59
2022-11-13T13:07:31.833Z,102712.47
2022-11-13T13:10:12.845Z,102702.25
2022-11-13T13:12:50.418Z,102700.16
2022-11-13T13:15:31.523Z,102700.03
2022-11-13T13:18:10.553Z,102697.94
2022-11-13T13:20:39.952Z,102692.16
2022-11-13T13:23:12.564Z,102694.97
2022-11-13T13:25:42.089Z,102694.38
2022-11-13T13:28:21.257Z,102698.16
2022-11-13T13:30:55.536Z,102694.53
2022-11-13T13:33:27.048Z,102683.91
2022-11-13T13:36:03.483Z,102681.25
2022-11-13T13:38:37.920Z,102681.09
2022-11-13T13:41:20.708Z,102692.72
2022-11-13T13:43:58.696Z,102685.41
2022-11-13T13:46:30.405Z,102677.19
2022-11-13T13:49:05.808Z,102681.06
2022-11-13T13:51:37.036Z,102676.88
2022-11-13T13:54:08.715Z,102675.34
2022-11-13T13:56:41.420Z,102665.66
2022-11-13T13:59:17.373Z,102659.34
2022-11-13T14:01:55.316Z,102669.53
2022-11-13T14:04:24.224Z,102657.09
2022-11-13T14:06:53.925Z,102658.63
2022-11-13T14:09:23.684Z,102643.50
2022-11-13T14:14:47.442Z,102646.28
2022-11-13T14:17:23.671Z,102647.13
2022-11-13T14:19:52.300Z,102646.56
2022-11-13T14:22:20.038Z,102652.47
2022-11-13T14:24:51.102Z,102658.47
2022-11-13T14:27:23.137Z,102660.56
2022-11-13T14:29:53.416Z,102658.06
2022-11-13T14:32:24.487Z,102659.03
2022-11-13T14:34:54.780Z,102654.97
2022-11-13T14:37:25.992Z,102651.16
2022-11-13T14:39:55.247Z,102656.06
2022-11-13T14:42:29.844Z,102651.19
2022-11-13T14:45:07.360Z,102643.63
2022-11-13T14:47:37.566Z,102648.94
2022-11-13T14:50:20.298Z,102641.22
2022-11-13T14:52:57.637Z,102648.88
2022-11-13T14:55:27.313Z,102645.84
2022-11-13T14:57:56.228Z,102647.78
2022-11-13T15:00:29.957Z,102650.31
2022-11-13T15:02:57.869Z,102656.59
2022-11-13T15:05:25.741Z,102646.09
2022-11-13T15:07:55.453Z,102641.22
2022-11-13T15:10:27.198Z,102642.66
2022-11-13T15:12:56.106Z,102643.34
2022-11-13T15:15:28.278Z,102648.66
2022-11-13T15:17:56.216Z,102640.00
2022-11-13T15:20:26.836Z,102639.84
2022-11-13T15:22:55.376Z,102647.13
2022-11-13T15:25:25.037Z,102644.63
2022-11-13T15:27:52.633Z,102638.56
2022-11-13T15:30:21.801Z,102643.75
2022-11-13T15:32:53.724Z,102638.72
2022-11-13T15:35:22.199Z,102636.06
2022-11-13T15:37:49.855Z,102632.22
2022-11-13T15:40:17.829Z,102638.38
2022-11-13T15:42:45.845Z,102640.06
2022-11-13T15:45:17.671Z,102632.22
2022-11-13T15:47:46.540Z,102644.81
2022-11-13T15:50:15.666Z,102633.72
2022-11-13T15:52:46.938Z,102636.97
2022-11-13T15:55:26.726Z,102624.66
2022-11-13T15:57:54.712Z,102626.47
2022-11-13T16:00:25.703Z,102616.69
2022-11-13T16:02:56.112Z,102608.56
2022-11-13T16:05:25.345Z,102600.03
2022-11-13T16:07:53.786Z,102601.56
2022-11-13T16:10:22.300Z,102596.69
2022-11-13T16:12:49.848Z,102599.22
2022-11-13T16:15:19.871Z,102595.47
2022-11-13T16:17:50.193Z,102595.59
2022-11-13T16:20:19.313Z,102597.84
2022-11-13T16:22:47.460Z,102592.53
2022-11-13T16:25:17.689Z,102593.00
2022-11-13T16:27:45.977Z,102596.75
2022-11-13T16:30:19.967Z,102594.66
2022-11-13T16:32:48.182Z,102595.22
2022-11-13T16:35:16.903Z,102586.28
2022-11-13T16:37:45.836Z,102588.66
2022-11-13T16:40:20.626Z,102584.59
2022-11-13T16:42:48.657Z,102570.19
2022-11-13T16:45:16.722Z,102580.44
2022-11-13T16:47:44.724Z,102571.44
2022-11-13T16:50:17.566Z,102576.50
2022-11-13T16:52:46.568Z,102575.38
2022-11-13T16:55:14.194Z,102568.38
2022-11-13T16:57:42.234Z,102569.06
2022-11-13T17:00:14.624Z,102574.41
2022-11-13T17:02:42.196Z,102572.31
2022-11-13T17:05:13.535Z,102563.06
2022-11-13T17:07:41.107Z,102564.72
2022-11-13T17:10:30.411Z,102565.56
2022-11-13T17:12:58.728Z,102560.41
2022-11-13T17:15:26.306Z,102549.91
2022-11-13T17:17:57.902Z,102554.25
2022-11-13T17:20:25.485Z,102554.25
2022-11-13T17:22:53.052Z,102546.97
2022-11-13T17:25:26.221Z,102538.13
2022-11-13T17:27:53.761Z,102541.63
2022-11-13T17:30:21.602Z,102543.06
2022-11-13T17:32:49.190Z,102553.69
2022-11-13T17:35:16.753Z,102541.91
2022-11-13T17:37:44.296Z,102550.88
2022-11-13T17:40:12.693Z,102545.44
2022-11-13T17:42:42.807Z,102544.59
2022-11-13T17:45:10.866Z,102549.75
2022-11-13T17:47:38.404Z,102539.66
2022-11-13T17:50:07.853Z,102535.19
2022-11-13T17:52:35.709Z,102536.03
2022-11-13T17:55:05.965Z,102527.38
2022-11-13T17:57:34.218Z,102535.47
2022-11-13T18:00:03.294Z,102530.03
2022-11-13T18:02:30.825Z,102535.19
2022-11-13T18:05:01.103Z,102536.59
2022-11-13T18:07:28.740Z,102536.31
2022-11-13T18:09:56.444Z,102540.50
2022-11-13T18:12:24.040Z,102535.19
2022-11-13T18:14:53.133Z,102536.72
2022-11-13T18:17:23.076Z,102528.72
2022-11-13T18:19:54.813Z,102516.28
2022-11-13T18:22:26.429Z,102514.28
2022-11-13T18:24:55.149Z,102521.16
2022-11-13T18:27:22.847Z,102521.03
2022-11-13T18:29:50.381Z,102515.16
2022-11-13T18:32:17.933Z,102509.81
2022-11-13T18:34:46.833Z,102515.81
2022-11-13T18:37:14.404Z,102512.19
2022-11-13T18:39:41.958Z,102503.66
2022-11-13T18:42:09.490Z,102520.19
2022-11-13T18:44:37.283Z,102510.78
2022-11-13T18:47:04.985Z,102508.28
2022-11-13T18:49:32.862Z,102502.13
2022-11-13T18:52:01.804Z,102505.75
2022-11-13T18:54:29.397Z,102505.19
2022-11-13T18:56:56.951Z,102508.56
2022-11-13T18:59:24.657Z,102501.28
2022-11-13T19:01:52.225Z,102506.03
2022-11-13T19:04:23.863Z,102513.44
2022-11-13T19:06:52.644Z,102508.13
2022-11-13T19:09:21.683Z,102501.84
2022-11-13T19:11:50.235Z,102511.91
2022-11-13T19:14:19.198Z,102503.94
2022-11-13T19:16:47.137Z,102508.41
2022-11-13T19:19:17.294Z,102500.44
2022-11-13T19:21:45.313Z,102496.81
2022-11-13T19:24:14.534Z,102487.97
2022-11-13T19:26:46.137Z,102486.28
2022-11-13T19:29:14.042Z,102477.63
2022-11-13T19:31:42.109Z,102481.97
2022-11-13T19:34:11.042Z,102476.47
2022-11-13T19:36:40.901Z,102475.66
2022-11-13T19:39:09.670Z,102473.53
2022-11-13T19:41:37.289Z,102469.06
2022-11-13T19:44:06.856Z,102460.09
2022-11-13T19:46:34.425Z,102463.06
2022-11-13T19:49:02.164Z,102469.91
2022-11-13T19:51:29.990Z,102461.75
2022-11-13T19:54:01.315Z,102472.28
2022-11-13T19:56:32.126Z,102463.31
2022-11-13T19:58:59.685Z,102464.97
2022-11-13T20:01:31.737Z,102467.50
2022-11-13T20:04:01.627Z,102458.53
2022-11-13T20:06:32.181Z,102462.88
2022-11-13T20:09:00.039Z,102457.41
2022-11-13T20:11:27.664Z,102453.47
2022-11-13T20:13:56.421Z,102456.84
2022-11-13T20:16:24.951Z,102461.03
2022-11-13T20:18:57.966Z,102464.38
2022-11-13T20:21:26.105Z,102462.38
2022-11-13T20:23:56.567Z,102453.44
2022-11-13T20:26:24.181Z,102450.47
2022-11-13T20:28:52.097Z,102447.66
2022-11-13T20:31:22.194Z,102453.81
2022-11-13T20:33:50.755Z,102444.69
2022-11-13T20:36:20.073Z,102430.41
2022-11-13T20:38:51.353Z,102438.25
2022-11-13T20:41:20.632Z,102429.28
2022-11-13T20:43:48.594Z,102432.66
2022-11-13T20:46:17.832Z,102422.13
2022-11-13T20:48:46.544Z,102428.97
2022-11-13T20:51:16.298Z,102423.53
2022-11-13T20:53:45.324Z,102424.19
2022-11-13T20:56:13.073Z,102421.91
2022-11-13T20:58:41.073Z,102411.13
2022-11-13T21:01:11.202Z,102410.84
2022-11-13T21:03:41.357Z,102407.34
2022-11-13T21:06:10.851Z,102402.00
2022-11-13T21:08:38.492Z,102402.97
2022-11-13T21:11:08.620Z,102398.38
2022-11-13T21:13:36.237Z,102392.34
2022-11-13T21:16:06.089Z,102387.00
2022-11-13T21:18:33.705Z,102399.34
2022-11-13T21:21:05.576Z,102395.72
2022-11-13T21:23:33.112Z,102403.81
2022-11-13T21:26:01.325Z,102396.84
2022-11-13T21:28:33.682Z,102402.00
2022-11-13T21:31:03.126Z,102389.06
2022-11-13T21:33:30.976Z,102400.72
2022-11-13T21:36:05.198Z,102393.59
2022-11-13T21:38:32.861Z,102393.59
2022-11-13T21:41:14.631Z,102396.69
2022-11-13T21:43:43.518Z,102388.56
2022-11-13T21:46:11.168Z,102385.06
2022-11-13T21:48:39.295Z,102386.28
2022-11-13T21:51:07.451Z,102392.28
2022-11-13T21:53:35.271Z,102380.78
2022-11-13T21:56:03.040Z,102376.47
2022-11-13T21:58:31.751Z,102379.63
2022-11-13T22:01:01.482Z,102375.44
2022-11-13T22:03:29.644Z,102365.66
2022-11-13T22:06:13.773Z,102362.00
2022-11-13T22:08:41.344Z,102364.38
2022-11-13T22:11:09.104Z,102357.53
2022-11-13T22:13:36.797Z,102357.66
2022-11-13T22:16:07.295Z,102356.81
2022-11-13T22:18:35.318Z,102355.00
2022-11-13T22:21:03.596Z,102354.69
2022-11-13T22:23:31.604Z,102360.69
2022-11-13T22:26:03.290Z,102346.69
2022-11-13T22:28:31.318Z,102348.53
2022-11-13T22:30:59.282Z,102341.97
2022-11-13T22:33:30.082Z,102342.56
2022-11-13T22:36:01.865Z,102342.56
2022-11-13T22:38:29.624Z,102337.41
2022-11-13T22:41:04.256Z,102327.91
2022-11-13T22:43:36.021Z,102333.22
2022-11-13T22:46:06.090Z,102351.63
2022-11-13T22:48:36.581Z,102332.81
2022-11-13T22:51:05.842Z,102331.84
2022-11-13T22:53:33.589Z,102330.47
2022-11-13T22:56:02.722Z,102326.81
2022-11-13T22:58:30.711Z,102323.03
2022-11-13T23:01:05.464Z,102330.03
2022-11-13T23:03:33.130Z,102329.88
2022-11-13T23:06:03.625Z,102326.53
2022-11-13T23:08:31.657Z,102325.53
2022-11-13T23:11:01.038Z,102324.69
2022-11-13T23:13:28.580Z,102317.56
2022-11-13T23:15:56.352Z,102313.88
2022-11-13T23:18:23.905Z,102316.25
2022-11-13T23:20:51.459Z,102299.28
2022-11-13T23:23:20.354Z,102306.31
2022-11-13T23:25:47.896Z,102309.09
2022-11-13T23:28:15.458Z,102307.28
2022-11-13T23:30:43.093Z,102300.13
2022-11-13T23:33:10.641Z,102301.59
2022-11-13T23:35:38.228Z,102300.75
2022-11-13T23:38:05.832Z,102298.06
2022-11-13T23:40:34.868Z,102303.84
2022-11-13T23:43:02.554Z,102295.19
2022-11-13T23:45:30.581Z,102290.16
2022-11-13T23:47:58.461Z,102293.25
2022-11-13T23:50:26.034Z,102291.44
2022-11-13T23:52:53.581Z,102284.44
2022-11-13T23:55:22.508Z,102273.41
2022-11-13T23:57:57.071Z,102275.91
